Spearfish, SD (57783)

1:04 PM MST on February 13, 2016 (GMT -0700)
TMWC | | Change Station
CLOSE
Current Station
Personal Weather Station
Location: Spearfish, SD
Elevation: 3685 ft
Nearby Weather Stations
Active Advisory: Special Statement

Elev 3685 ft 44.49 °N, 103.87 °W | Updated 7 seconds ago

Partly Cloudy
Partly Cloudy
48.4 °F
Feels Like 45 °F
N
8.1
Wind Variable Wind from NNW
Gusts 8.1 mph

Today
High -- | Low -- °F
--% Chance of Precip.
Yesterday
High -- | Low -- °F
Precip. -- in
Pressure 29.79 in
Visibility 10.0 miles
Clouds Clear
Windchill 45 °F
Dew Point 33 °F
Humidity 55%
Rainfall 0.00 in
Snow Depth Not available.
6:59 AM 5:20 PM
Waxing Crescent, 33% visible
METAR KSPF 131955Z AUTO 06009KT 10SM CLR 13/01 A2979 RMK AO2
Pressure 29.79 in
Visibility 10.0 miles
Clouds Clear
Windchill 45 °F
Dew Point 33 °F
Humidity 55%
Rainfall 0.00 in
Snow Depth Not available.
6:59 AM 5:20 PM
Waxing Crescent, 33% visible
METAR KSPF 131955Z AUTO 06009KT 10SM CLR 13/01 A2979 RMK AO2

10-Day Weather Forecast

Almanac

Astronomy

Feb. 13, 2016 Rise Set
Actual Time
Civil Twilight
Nautical Twilight
Astronomical Twilight
Moon
Length of Visible Light
Length of Day
Tomorrow will be .
, % of the Moon is Illuminated

Today's Extremes

State Highs State Lows

Community

WunderPhotos

Upload Photos

1,892,653 photos uploaded!

WunderBlog® & News

Nearby

Air Quality

  Air Quality AQ Index Pollutant
Not available.

Snow Depth

Station Depth Elevation

Earthquake Activity

City Distance Mag. Time & Date
Minimum magnitude displayed is 2.5.

Coastal Water Temperatures

Place Temperature

Stations

Nearby Weather Stations

Station Location Temp. Windchill Dew Point Humidity Wind Precip. Elev Updated Type
                   

Watches & Warnings

Special Statement
Issued: 12:09 PM MST Feb. 13, 2016 – National Weather Service

An area of showers along a cold front will cross northeast
Wyoming into the Black Hills area this afternoon. As the cold
front and showers move through... there will be a short period of
strong northwest winds... with gusts to 55 mph possible.

Travelers should be prepared for strong and erratic wind gusts as
the showers move though. Secure any lightweight items outdoors to
avoid damage.



1209 PM MST Sat Feb 13 2016

An area of showers along a cold front will cross northeast
Wyoming into the Black Hills area this afternoon. As the cold
front and showers move through... there will be a short period of
strong northwest winds... with gusts to 55 mph possible.

Travelers should be prepared for strong and erratic wind gusts as
the showers move though. Secure any lightweight items outdoors to
avoid damage.